Time;durP1;ratioP1;P1;durP2;ratioP2;P2;SDS_P1;SDS_P2;PMS_P1;PMS_P2;Temp;Humidity;BMP_temperature;BMP_pressure;BME280_temperature;BME280_humidity;BME280_pressure;Samples;Min_cycle;Max_cycle;Signal;HPM_P1;HPM_P2
2022/08/10 00:02:44;;;;;;;2.70;1.48;;;17.30;70.30;;;;;;625804;230;26557;-64
2022/08/10 00:05:12;;;;;;;1.52;1.37;;;17.30;69.70;;;;;;625823;224;26561;-64
2022/08/10 00:07:40;;;;;;;1.75;1.35;;;17.20;69.60;;;;;;625788;230;26828;-64
2022/08/10 00:10:08;;;;;;;1.83;1.73;;;17.20;70.60;;;;;;625503;229;26578;-64
2022/08/10 00:12:35;;;;;;;3.33;1.60;;;17.30;70.00;;;;;;625596;230;26577;-64
2022/08/10 00:15:02;;;;;;;1.30;1.30;;;17.20;70.20;;;;;;625484;230;26849;-64
2022/08/10 00:17:29;;;;;;;2.08;1.40;;;17.20;71.50;;;;;;625483;230;26568;-64
2022/08/10 00:19:57;;;;;;;1.40;1.30;;;17.10;72.70;;;;;;625592;230;26579;-64
2022/08/10 00:22:25;;;;;;;3.90;1.73;;;17.10;72.00;;;;;;625544;230;26576;-64
2022/08/10 00:24:56;;;;;;;2.28;1.60;;;17.00;72.90;;;;;;625554;230;26576;-64
2022/08/10 00:27:19;;;;;;;3.03;1.35;;;17.00;72.90;;;;;;625178;230;26831;-64
2022/08/10 00:29:46;;;;;;;1.62;1.52;;;17.00;73.40;;;;;;625573;229;26558;-64
2022/08/10 00:32:13;;;;;;;1.75;1.40;;;17.00;74.90;;;;;;625417;229;26817;-64
2022/08/10 00:34:41;;;;;;;2.08;1.42;;;16.90;74.80;;;;;;625536;230;26612;-64
2022/08/10 00:37:08;;;;;;;3.55;1.33;;;16.90;76.00;;;;;;625468;229;26827;-64
2022/08/10 00:39:35;;;;;;;1.70;1.60;;;16.90;76.20;;;;;;625481;230;26595;-64
2022/08/10 00:42:03;;;;;;;1.80;1.52;;;16.90;75.70;;;;;;625378;229;26819;-64
2022/08/10 00:44:30;;;;;;;2.03;1.58;;;16.80;76.60;;;;;;626740;228;26602;-64
2022/08/10 00:46:59;;;;;;;1.95;1.40;;;16.80;76.50;;;;;;627190;229;26788;-64
2022/08/10 00:49:24;;;;;;;1.52;1.42;;;16.70;76.10;;;;;;626742;229;26548;-64
2022/08/10 00:51:52;;;;;;;2.22;1.50;;;16.80;77.70;;;;;;626692;230;26802;-64
2022/08/10 00:54:20;;;;;;;2.17;1.30;;;16.70;78.10;;;;;;626508;229;26612;-64
2022/08/10 00:56:47;;;;;;;1.60;1.50;;;16.70;78.10;;;;;;626437;229;26521;-64
2022/08/10 00:59:14;;;;;;;1.58;1.48;;;16.70;77.90;;;;;;626477;230;26544;-64
2022/08/10 01:01:41;;;;;;;1.50;1.40;;;16.80;78.00;;;;;;626095;229;26816;-64
2022/08/10 01:04:09;;;;;;;1.58;1.42;;;16.60;79.70;;;;;;625865;230;26565;-64
2022/08/10 01:06:41;;;;;;;2.37;1.67;;;16.60;80.20;;;;;;625842;230;26506;-64
2022/08/10 01:09:15;;;;;;;2.22;1.83;;;16.60;80.20;;;;;;625405;230;26541;-66
2022/08/10 01:11:48;;;;;;;2.03;1.52;;;16.60;80.70;;;;;;625834;230;26551;-66
2022/08/10 01:14:31;;;;;;;1.58;1.48;;;16.60;80.50;;;;;;625744;230;26565;-66
2022/08/10 01:17:00;;;;;;;2.10;1.45;;;16.50;80.50;;;;;;625528;230;26559;-67
2022/08/10 01:20:04;;;;;;;2.70;1.77;;;16.50;81.20;;;;;;625537;230;26526;-66
2022/08/10 01:22:52;;;;;;;2.65;1.35;;;16.50;81.80;;;;;;617822;230;26573;-66
2022/08/10 01:25:43;;;;;;;2.25;1.55;;;16.50;82.60;;;;;;621923;230;26858;-67
2022/08/10 01:28:18;;;;;;;1.70;1.60;;;16.40;83.00;;;;;;624295;230;26622;-67
2022/08/10 01:30:45;;;;;;;2.90;1.80;;;16.40;83.20;;;;;;625080;230;26587;-67
2022/08/10 01:33:12;;;;;;;2.20;1.60;;;16.40;82.50;;;;;;625521;229;26832;-67
2022/08/10 01:35:39;;;;;;;1.92;1.83;;;16.40;83.70;;;;;;625126;230;26555;-67
2022/08/10 01:38:09;;;;;;;1.83;1.52;;;16.40;84.70;;;;;;625183;230;26895;-67
2022/08/10 01:40:38;;;;;;;3.67;1.75;;;16.40;86.50;;;;;;625391;230;26605;-67
2022/08/10 01:43:06;;;;;;;2.22;1.80;;;16.40;86.50;;;;;;625390;230;26872;-67
2022/08/10 01:45:33;;;;;;;1.90;1.60;;;16.40;87.50;;;;;;625413;230;26602;-67
2022/08/10 01:50:50;;;;;;;1.70;1.60;;;16.40;87.70;;;;;;625578;229;26575;-67
2022/08/10 01:53:20;;;;;;;1.90;1.67;;;16.40;87.40;;;;;;625459;230;26616;-67
2022/08/10 01:55:48;;;;;;;2.45;1.70;;;16.30;86.40;;;;;;626052;228;26611;-67
2022/08/10 01:58:15;;;;;;;1.95;1.40;;;16.30;86.90;;;;;;627170;227;26558;-67
2022/08/10 02:00:44;;;;;;;1.87;1.77;;;16.20;86.70;;;;;;626869;229;26508;-66
2022/08/10 02:03:10;;;;;;;1.65;1.55;;;16.30;86.80;;;;;;626721;224;26528;-66
2022/08/10 02:05:37;;;;;;;1.62;1.42;;;16.20;89.10;;;;;;626613;229;26562;-66
2022/08/10 02:08:05;;;;;;;2.17;1.90;;;16.20;90.00;;;;;;626164;229;26815;-67
2022/08/10 02:10:32;;;;;;;2.25;1.50;;;16.20;90.00;;;;;;626106;229;26585;-66
2022/08/10 02:12:59;;;;;;;4.62;1.80;;;16.20;90.00;;;;;;626016;230;26939;-66
2022/08/10 02:15:26;;;;;;;4.85;2.15;;;16.20;90.40;;;;;;625893;229;26510;-66
2022/08/10 02:17:54;;;;;;;4.10;1.85;;;16.10;89.50;;;;;;625715;229;26780;-66
2022/08/10 02:20:21;;;;;;;1.87;1.52;;;16.10;90.50;;;;;;625731;230;26775;-67
2022/08/10 02:22:49;;;;;;;1.95;1.58;;;16.10;90.50;;;;;;625731;229;26522;-67
2022/08/10 02:25:16;;;;;;;2.15;1.90;;;16.00;90.40;;;;;;625668;230;26509;-67
2022/08/10 02:27:44;;;;;;;1.90;1.77;;;16.10;91.30;;;;;;625768;230;26545;-67
2022/08/10 02:30:11;;;;;;;3.40;1.80;;;16.10;91.80;;;;;;625774;229;26759;-67
2022/08/10 02:32:39;;;;;;;1.80;1.70;;;16.10;91.60;;;;;;625480;229;26619;-67
2022/08/10 02:35:07;;;;;;;4.60;1.90;;;16.00;92.00;;;;;;625488;229;26899;-67
2022/08/10 02:37:34;;;;;;;2.67;1.80;;;16.00;92.50;;;;;;625474;230;26606;-67
2022/08/10 02:40:03;;;;;;;2.05;1.77;;;15.90;92.40;;;;;;625396;229;26563;-67
2022/08/10 02:42:30;;;;;;;1.92;1.60;;;15.90;92.40;;;;;;625576;230;26820;-67
2022/08/10 02:44:57;;;;;;;2.40;2.00;;;15.90;92.40;;;;;;625279;230;26580;-67
2022/08/10 02:47:25;;;;;;;1.95;1.77;;;15.80;92.70;;;;;;625362;230;26836;-67
2022/08/10 02:50:09;;;;;;;3.25;2.22;;;15.90;92.30;;;;;;625441;229;26597;-67
2022/08/10 02:52:38;;;;;;;2.28;2.08;;;15.80;93.60;;;;;;621864;230;26619;-67
2022/08/10 02:55:10;;;;;;;1.95;1.85;;;15.80;93.60;;;;;;625341;228;26598;-67
2022/08/10 02:57:37;;;;;;;1.67;1.58;;;15.80;93.60;;;;;;625214;230;26938;-67
2022/08/10 03:00:06;;;;;;;1.80;1.67;;;15.80;93.10;;;;;;625337;230;26585;-67
2022/08/10 03:02:34;;;;;;;2.40;1.75;;;15.80;93.10;;;;;;625444;229;26603;-67
2022/08/10 03:05:03;;;;;;;3.08;1.80;;;15.70;93.80;;;;;;625332;230;26643;-67
2022/08/10 03:07:30;;;;;;;4.40;2.12;;;15.70;93.50;;;;;;626022;227;26588;-67
2022/08/10 03:09:57;;;;;;;2.72;1.83;;;15.80;93.40;;;;;;626908;229;26565;-67
2022/08/10 03:12:24;;;;;;;1.90;1.80;;;15.80;93.40;;;;;;626781;229;26783;-67
2022/08/10 03:14:52;;;;;;;1.95;1.60;;;15.80;94.10;;;;;;626515;229;26552;-66
2022/08/10 03:17:19;;;;;;;1.90;1.67;;;15.70;94.00;;;;;;626272;229;26784;-66
2022/08/10 03:19:46;;;;;;;1.85;1.75;;;15.70;93.90;;;;;;626201;229;26548;-66
2022/08/10 03:22:13;;;;;;;3.10;1.95;;;15.70;93.70;;;;;;626186;229;26798;-66
2022/08/10 03:24:40;;;;;;;1.87;1.77;;;15.70;94.30;;;;;;626081;229;26606;-67
2022/08/10 03:27:08;;;;;;;2.30;2.10;;;15.70;94.90;;;;;;625813;229;26534;-67
2022/08/10 03:29:36;;;;;;;4.32;1.98;;;15.60;93.90;;;;;;625774;229;26529;-66
2022/08/10 03:32:04;;;;;;;2.45;1.92;;;15.70;94.60;;;;;;625804;229;26571;-67
2022/08/10 03:34:31;;;;;;;1.83;1.73;;;15.60;94.50;;;;;;625828;229;26561;-67
2022/08/10 03:36:59;;;;;;;4.53;1.95;;;15.60;94.50;;;;;;625783;229;26512;-67
2022/08/10 03:39:26;;;;;;;1.90;1.67;;;15.60;94.00;;;;;;625771;229;26534;-67
2022/08/10 03:41:54;;;;;;;1.87;1.67;;;15.60;94.60;;;;;;625786;229;26754;-67
2022/08/10 03:44:21;;;;;;;2.92;2.12;;;15.60;94.20;;;;;;625391;230;26641;-67
2022/08/10 03:46:48;;;;;;;3.08;2.22;;;15.60;94.80;;;;;;625352;230;26818;-67
2022/08/10 03:49:15;;;;;;;3.37;1.98;;;15.60;94.40;;;;;;625544;229;26563;-67
2022/08/10 03:51:43;;;;;;;3.37;2.20;;;15.60;94.60;;;;;;625494;229;26810;-67
2022/08/10 03:54:10;;;;;;;2.28;1.95;;;15.60;95.20;;;;;;625436;229;26624;-67
2022/08/10 03:56:37;;;;;;;3.25;2.10;;;15.60;95.00;;;;;;625430;229;26824;-67
2022/08/10 03:59:05;;;;;;;2.53;1.80;;;15.60;94.80;;;;;;625352;229;26608;-67
2022/08/10 04:01:33;;;;;;;2.53;2.30;;;15.60;95.10;;;;;;625452;229;26553;-67
2022/08/10 04:04:01;;;;;;;2.30;2.10;;;15.50;95.00;;;;;;625524;229;26941;-67
2022/08/10 04:06:29;;;;;;;3.87;2.45;;;15.50;96.00;;;;;;625527;230;26603;-67
2022/08/10 04:08:57;;;;;;;2.28;2.08;;;15.60;96.20;;;;;;625568;224;26555;-67
2022/08/10 04:11:25;;;;;;;2.70;2.00;;;15.60;96.30;;;;;;625484;229;26585;-67
2022/08/10 04:13:52;;;;;;;3.10;2.35;;;15.60;96.10;;;;;;625555;230;26647;-67
2022/08/10 04:16:19;;;;;;;2.20;2.00;;;15.70;95.50;;;;;;625508;229;26598;-67
2022/08/10 04:18:47;;;;;;;3.40;2.15;;;15.70;96.10;;;;;;626123;228;26812;-66
2022/08/10 04:21:14;;;;;;;4.03;2.05;;;15.70;96.10;;;;;;627025;229;26808;-66
2022/08/10 04:23:41;;;;;;;2.10;1.90;;;15.70;96.10;;;;;;626458;229;26579;-66
2022/08/10 04:26:08;;;;;;;2.47;2.03;;;15.80;96.40;;;;;;626381;230;26871;-66
2022/08/10 04:28:36;;;;;;;2.87;2.33;;;15.70;95.60;;;;;;626287;229;26559;-66
2022/08/10 04:31:03;;;;;;;2.42;1.80;;;15.80;95.60;;;;;;626136;229;26794;-66
2022/08/10 04:33:31;;;;;;;4.07;2.15;;;15.80;95.60;;;;;;626157;229;26592;-66
2022/08/10 04:35:58;;;;;;;2.22;2.03;;;15.80;95.70;;;;;;626186;229;26792;-66
2022/08/10 04:38:25;;;;;;;2.55;2.35;;;15.80;96.30;;;;;;625801;229;26552;-66
2022/08/10 04:40:52;;;;;;;3.55;2.28;;;15.80;96.80;;;;;;625782;230;26784;-67
2022/08/10 04:43:19;;;;;;;2.15;1.98;;;15.90;97.00;;;;;;625886;229;26586;-67
2022/08/10 04:45:47;;;;;;;2.40;2.20;;;15.90;96.70;;;;;;625779;229;27086;-67
2022/08/10 04:48:14;;;;;;;2.55;2.00;;;15.90;96.60;;;;;;625737;230;26547;-66
2022/08/10 04:50:41;;;;;;;2.72;2.12;;;16.00;96.60;;;;;;625835;229;26907;-67
2022/08/10 04:53:09;;;;;;;2.55;2.28;;;16.10;96.40;;;;;;625828;229;26553;-67
2022/08/10 04:55:37;;;;;;;2.78;2.17;;;16.10;96.40;;;;;;625683;230;26534;-66
2022/08/10 04:58:05;;;;;;;2.12;1.92;;;16.10;95.70;;;;;;625542;229;26586;-66
2022/08/10 05:00:33;;;;;;;2.30;2.10;;;16.20;95.60;;;;;;625460;229;26637;-66
2022/08/10 05:03:00;;;;;;;2.10;1.90;;;16.20;95.60;;;;;;625441;229;26646;-66
2022/08/10 05:05:27;;;;;;;2.22;2.03;;;16.30;95.10;;;;;;625507;230;26553;-66
2022/08/10 05:07:54;;;;;;;2.35;2.12;;;16.30;96.00;;;;;;625449;230;26802;-66
2022/08/10 05:10:22;;;;;;;1.92;1.83;;;16.30;95.60;;;;;;625497;229;26611;-66
2022/08/10 05:12:50;;;;;;;2.30;2.10;;;16.50;95.30;;;;;;625375;230;26566;-66
2022/08/10 05:15:18;;;;;;;3.30;2.08;;;16.60;95.00;;;;;;625461;229;26612;-66
2022/08/10 05:17:46;;;;;;;2.17;1.98;;;16.60;95.30;;;;;;625470;229;26580;-66
2022/08/10 05:20:14;;;;;;;2.30;2.10;;;16.80;94.70;;;;;;625539;230;26596;-66
2022/08/10 05:22:42;;;;;;;2.95;2.08;;;16.70;94.60;;;;;;625493;229;26583;-66
2022/08/10 05:25:10;;;;;;;2.87;2.12;;;16.80;94.50;;;;;;625510;229;26583;-66
2022/08/10 05:27:37;;;;;;;2.30;2.10;;;16.90;94.70;;;;;;625531;229;26841;-66
2022/08/10 05:30:06;;;;;;;2.35;2.15;;;17.00;94.80;;;;;;625884;228;27098;-66
2022/08/10 05:32:33;;;;;;;2.20;1.92;;;17.00;93.60;;;;;;627105;229;26545;-66
2022/08/10 05:35:00;;;;;;;4.87;2.35;;;17.10;93.60;;;;;;626630;229;26557;-66
2022/08/10 05:37:28;;;;;;;2.40;2.10;;;17.20;94.10;;;;;;626506;229;26541;-66
2022/08/10 05:39:55;;;;;;;2.42;2.22;;;17.20;94.00;;;;;;626262;230;26814;-66
2022/08/10 05:42:23;;;;;;;6.05;2.45;;;17.40;92.70;;;;;;626060;229;26570;-66
2022/08/10 05:44:50;;;;;;;2.10;1.90;;;17.50;92.50;;;;;;625966;230;26633;-66
2022/08/10 05:47:18;;;;;;;3.33;2.17;;;17.60;92.10;;;;;;626171;230;26606;-66
2022/08/10 05:49:47;;;;;;;2.67;2.47;;;17.70;91.60;;;;;;625871;230;26545;-66
2022/08/10 05:52:14;;;;;;;2.22;2.03;;;17.60;91.60;;;;;;625841;230;26542;-66
2022/08/10 05:54:41;;;;;;;2.10;2.00;;;17.70;92.20;;;;;;626013;230;26549;-66
2022/08/10 05:57:08;;;;;;;2.47;1.90;;;17.80;91.40;;;;;;625989;226;26752;-66
2022/08/10 05:59:35;;;;;;;4.00;2.12;;;17.90;91.40;;;;;;629616;225;26574;-66
2022/08/10 06:02:03;;;;;;;5.15;2.20;;;18.00;91.20;;;;;;627051;227;26741;-67
2022/08/10 06:04:30;;;;;;;12.70;2.67;;;18.00;91.10;;;;;;630188;226;26599;-67
2022/08/10 06:06:57;;;;;;;3.58;2.42;;;18.10;91.30;;;;;;612780;234;26829;-67
2022/08/10 06:09:24;;;;;;;4.03;2.10;;;18.20;90.60;;;;;;612328;229;26568;-68
2022/08/10 06:11:52;;;;;;;5.47;2.40;;;18.30;90.80;;;;;;613029;233;26812;-67
2022/08/10 06:16:52;;;;;;;4.32;2.17;;;18.50;89.00;;;;;;612326;233;26616;-67
2022/08/10 06:19:20;;;;;;;4.82;2.78;;;18.70;87.20;;;;;;617456;230;26559;-66
2022/08/10 06:21:47;;;;;;;3.90;2.40;;;18.70;87.10;;;;;;629474;226;26565;-67
2022/08/10 06:24:16;;;;;;;3.47;2.37;;;18.80;88.80;;;;;;627214;225;26987;-67
2022/08/10 06:26:42;;;;;;;4.25;2.40;;;18.90;87.70;;;;;;629260;227;26593;-67
2022/08/10 06:29:10;;;;;;;6.35;2.58;;;19.10;87.70;;;;;;627421;227;26813;-67
2022/08/10 06:31:38;;;;;;;2.42;2.05;;;19.20;85.40;;;;;;626957;227;26620;-67
2022/08/10 06:34:05;;;;;;;2.75;2.30;;;19.30;84.60;;;;;;633744;226;26777;-67
2022/08/10 06:36:33;;;;;;;5.93;2.55;;;19.40;84.70;;;;;;629628;226;26553;-67
2022/08/10 06:39:01;;;;;;;3.17;2.30;;;19.50;83.20;;;;;;633725;226;26534;-67
2022/08/10 06:41:28;;;;;;;9.38;2.65;;;19.60;84.40;;;;;;630861;226;26565;-67
2022/08/10 06:43:57;;;;;;;2.30;2.10;;;19.70;83.50;;;;;;629177;227;26602;-67
2022/08/10 06:46:25;;;;;;;4.68;2.20;;;19.70;83.50;;;;;;629203;226;26807;-67
2022/08/10 06:48:53;;;;;;;3.50;2.42;;;19.80;82.10;;;;;;612099;233;26632;-67
2022/08/10 06:51:29;;;;;;;2.75;2.55;;;20.10;80.00;;;;;;618617;232;26583;-67
2022/08/10 06:53:58;;;;;;;3.08;2.37;;;20.10;79.60;;;;;;628274;227;26598;-67
2022/08/10 06:56:26;;;;;;;2.78;2.50;;;20.10;78.70;;;;;;632011;227;26550;-67
2022/08/10 06:58:55;;;;;;;3.03;2.62;;;20.10;78.50;;;;;;626897;227;26525;-67
2022/08/10 07:01:22;;;;;;;3.85;2.40;;;20.10;78.40;;;;;;610152;235;27019;-67
2022/08/10 07:03:51;;;;;;;3.92;2.53;;;20.20;78.50;;;;;;612336;234;26632;-69
2022/08/10 07:06:18;;;;;;;2.40;2.20;;;20.40;78.00;;;;;;629273;227;26835;-67
2022/08/10 07:08:45;;;;;;;4.28;2.35;;;20.60;75.00;;;;;;625163;227;26513;-66
2022/08/10 07:11:12;;;;;;;2.67;2.47;;;20.80;73.70;;;;;;613426;234;26823;-67
2022/08/10 07:13:40;;;;;;;4.07;2.25;;;21.00;72.00;;;;;;632148;227;26567;-67
2022/08/10 07:16:08;;;;;;;3.78;2.50;;;21.20;72.00;;;;;;625367;230;27237;-67
2022/08/10 07:18:35;;;;;;;3.22;2.47;;;21.10;71.90;;;;;;632644;226;26812;-67
2022/08/10 07:21:02;;;;;;;2.53;2.33;;;21.20;72.70;;;;;;627483;226;26572;-68
2022/08/10 07:23:29;;;;;;;2.12;2.00;;;21.30;72.00;;;;;;635886;225;26820;-68
2022/08/10 07:25:57;;;;;;;3.00;2.22;;;21.40;70.20;;;;;;605352;235;26579;-68
2022/08/10 07:28:24;;;;;;;5.37;2.50;;;21.40;70.10;;;;;;613898;232;26558;-67
2022/08/10 07:30:52;;;;;;;5.68;2.30;;;21.50;69.90;;;;;;619300;231;26854;-67
2022/08/10 07:33:20;;;;;;;2.35;2.15;;;21.80;70.00;;;;;;625381;227;26579;-67
2022/08/10 07:35:47;;;;;;;4.10;2.45;;;21.80;70.00;;;;;;624900;230;26553;-66
2022/08/10 07:38:22;;;;;;;6.32;2.17;;;21.80;67.70;;;;;;624687;230;26819;-67
2022/08/10 07:40:50;;;;;;;3.47;2.22;;;21.90;67.50;;;;;;609713;235;26944;-68
2022/08/10 07:43:17;;;;;;;2.65;2.40;;;21.90;66.00;;;;;;612940;233;26609;-68
2022/08/10 07:45:44;;;;;;;15.80;2.72;;;22.10;66.60;;;;;;613259;233;26826;-70
2022/08/10 07:48:15;;;;;;;3.40;2.50;;;22.20;64.60;;;;;;628891;227;26575;-69
2022/08/10 07:50:42;;;;;;;3.12;2.45;;;22.20;63.00;;;;;;633792;225;26540;-69
2022/08/10 07:53:09;;;;;;;3.00;2.17;;;22.30;62.20;;;;;;627860;225;26813;-69
2022/08/10 07:55:37;;;;;;;2.17;2.08;;;22.40;61.10;;;;;;637035;225;26592;-69
2022/08/10 07:58:04;;;;;;;4.72;2.20;;;22.30;61.20;;;;;;632367;226;27178;-69
2022/08/10 08:00:31;;;;;;;5.37;3.05;;;22.40;60.30;;;;;;633912;225;26569;-69
2022/08/10 08:02:58;;;;;;;2.85;2.53;;;22.50;60.20;;;;;;629095;225;26824;-69
2022/08/10 08:05:26;;;;;;;2.62;2.25;;;22.50;59.70;;;;;;631803;227;26575;-69
2022/08/10 08:07:54;;;;;;;3.08;2.33;;;22.50;58.70;;;;;;625855;230;26573;-70
2022/08/10 08:10:21;;;;;;;4.07;2.60;;;22.50;58.80;;;;;;625772;230;26587;-69
2022/08/10 08:12:50;;;;;;;5.82;2.67;;;22.40;58.80;;;;;;625235;230;26771;-69
2022/08/10 08:15:16;;;;;;;3.10;2.50;;;22.50;58.80;;;;;;609645;235;26575;-69
2022/08/10 08:17:44;;;;;;;2.95;2.28;;;22.60;58.30;;;;;;630862;227;26748;-69
2022/08/10 08:20:11;;;;;;;3.58;2.20;;;22.60;58.00;;;;;;625329;224;26589;-69
2022/08/10 08:22:38;;;;;;;4.95;2.20;;;22.70;57.70;;;;;;625140;227;26585;-69
2022/08/10 08:25:07;;;;;;;4.62;2.20;;;22.80;57.60;;;;;;612024;233;26608;-69
2022/08/10 08:27:34;;;;;;;3.85;2.25;;;22.80;57.60;;;;;;612209;235;26556;-69
2022/08/10 08:30:01;;;;;;;2.33;2.05;;;22.80;57.20;;;;;;612699;235;26787;-69
2022/08/10 08:32:29;;;;;;;2.72;2.15;;;22.90;57.30;;;;;;612655;234;27455;-70
2022/08/10 08:34:57;;;;;;;3.70;2.12;;;23.00;56.80;;;;;;625696;230;26595;-69
2022/08/10 08:37:25;;;;;;;3.05;2.37;;;23.00;55.60;;;;;;633836;226;26572;-69
2022/08/10 08:39:52;;;;;;;2.55;2.20;;;22.90;55.60;;;;;;627968;227;26558;-68
2022/08/10 08:42:27;;;;;;;1.27;1.20;;;23.00;55.30;;;;;;628805;226;26516;-69
2022/08/10 08:44:59;;;;;;;2.25;1.87;;;23.00;54.70;;;;;;624113;230;26595;-70
2022/08/10 08:47:46;;;;;;;1.70;1.60;;;23.10;54.30;;;;;;626493;226;26582;-69
2022/08/10 08:50:16;;;;;;;1.98;1.87;;;23.10;54.30;;;;;;625876;226;26598;-69
2022/08/10 08:52:47;;;;;;;3.15;1.70;;;23.20;54.50;;;;;;629385;227;26522;-69
2022/08/10 08:55:18;;;;;;;2.55;1.90;;;23.20;53.50;;;;;;626221;227;26864;-69
2022/08/10 08:58:03;;;;;;;1.65;1.55;;;23.30;52.90;;;;;;629856;227;26538;-69
2022/08/10 09:00:51;;;;;;;2.08;1.90;;;23.30;52.90;;;;;;628841;224;26530;-69
2022/08/10 09:03:30;;;;;;;2.87;1.80;;;23.30;52.90;;;;;;618794;230;26901;-69
2022/08/10 09:06:13;;;;;;;1.70;1.52;;;23.40;52.80;;;;;;626452;228;26802;-69
2022/08/10 09:08:53;;;;;;;3.40;2.10;;;23.50;52.80;;;;;;618194;230;26606;-68
2022/08/10 09:11:25;;;;;;;3.35;1.80;;;23.60;52.00;;;;;;625097;226;26790;-69
2022/08/10 09:14:18;;;;;;;1.20;1.20;;;23.60;50.80;;;;;;625491;229;26623;-69
2022/08/10 09:16:47;;;;;;;2.40;2.03;;;23.70;49.30;;;;;;625144;230;26584;-69
2022/08/10 09:19:16;;;;;;;1.50;1.40;;;23.60;48.90;;;;;;625639;230;26791;-69
2022/08/10 09:21:48;;;;;;;2.80;1.58;;;23.70;48.60;;;;;;625391;230;26830;-69
2022/08/10 09:24:36;;;;;;;1.65;1.30;;;23.70;48.40;;;;;;625419;230;26555;-69
2022/08/10 09:27:04;;;;;;;1.87;1.62;;;23.80;48.20;;;;;;623678;226;26767;-69
2022/08/10 09:29:31;;;;;;;2.10;1.50;;;23.80;48.80;;;;;;624685;230;26826;-69
2022/08/10 09:31:59;;;;;;;4.93;2.42;;;23.90;48.50;;;;;;624605;230;26584;-69
2022/08/10 09:34:30;;;;;;;2.42;2.22;;;23.90;48.60;;;;;;624697;230;26544;-68
2022/08/10 09:37:00;;;;;;;1.73;1.62;;;24.00;46.90;;;;;;625045;230;26752;-69
2022/08/10 09:39:27;;;;;;;2.00;1.90;;;24.00;47.30;;;;;;625045;230;26510;-69
2022/08/10 09:41:56;;;;;;;4.93;1.70;;;24.00;45.50;;;;;;624724;230;26562;-68
2022/08/10 09:44:44;;;;;;;3.65;1.55;;;24.10;45.10;;;;;;624233;230;26606;-69
2022/08/10 09:47:10;;;;;;;3.33;1.52;;;24.10;45.10;;;;;;617452;230;26567;-68
2022/08/10 09:49:38;;;;;;;2.28;2.05;;;24.10;43.70;;;;;;624457;230;26555;-68
2022/08/10 09:52:10;;;;;;;4.55;1.98;;;24.10;43.60;;;;;;624336;230;26557;-69
2022/08/10 09:54:57;;;;;;;2.50;1.45;;;24.20;43.90;;;;;;624716;225;26607;-69
2022/08/10 09:57:28;;;;;;;1.95;1.60;;;24.20;43.90;;;;;;621809;230;26830;-70
2022/08/10 10:00:11;;;;;;;1.73;1.50;;;24.20;46.20;;;;;;625203;230;26603;-69
2022/08/10 10:02:55;;;;;;;1.37;1.17;;;24.30;44.90;;;;;;625735;230;26575;-68
2022/08/10 10:05:43;;;;;;;5.45;1.92;;;24.30;44.00;;;;;;612779;230;26796;-69
2022/08/10 10:08:31;;;;;;;3.87;1.48;;;24.30;43.90;;;;;;625255;230;26580;-69
2022/08/10 10:11:00;;;;;;;1.50;1.40;;;24.40;44.10;;;;;;624441;230;27018;-69
2022/08/10 10:13:30;;;;;;;1.45;1.35;;;24.40;43.70;;;;;;625207;230;26844;-69
2022/08/10 10:16:13;;;;;;;1.50;1.40;;;24.50;44.90;;;;;;624341;230;26780;-69
2022/08/10 10:18:43;;;;;;;3.33;1.52;;;24.50;43.80;;;;;;632353;224;26614;-69
2022/08/10 10:21:13;;;;;;;1.60;1.50;;;24.50;44.70;;;;;;639857;225;26540;-68
2022/08/10 10:23:56;;;;;;;1.90;1.10;;;24.50;42.80;;;;;;639755;225;26806;-69
2022/08/10 10:26:40;;;;;;;3.40;1.40;;;24.60;43.90;;;;;;639238;225;26585;-69
2022/08/10 10:29:19;;;;;;;1.77;1.25;;;24.60;43.50;;;;;;638371;225;26776;-68
2022/08/10 10:31:54;;;;;;;2.25;1.30;;;24.70;41.50;;;;;;635982;226;26594;-68
2022/08/10 10:34:29;;;;;;;1.30;1.20;;;24.70;42.50;;;;;;635525;226;26647;-68
2022/08/10 10:36:57;;;;;;;1.50;1.37;;;24.70;42.50;;;;;;635237;226;26543;-69
2022/08/10 10:39:24;;;;;;;2.40;1.40;;;24.80;43.50;;;;;;635712;225;26503;-69
2022/08/10 10:41:54;;;;;;;1.42;1.42;;;24.90;43.20;;;;;;635703;225;26558;-69
2022/08/10 10:44:50;;;;;;;2.45;1.35;;;24.90;43.20;;;;;;635266;226;26542;-69
2022/08/10 10:47:18;;;;;;;3.42;1.30;;;25.00;43.20;;;;;;630892;226;26796;-69
2022/08/10 10:49:52;;;;;;;1.50;1.40;;;25.00;42.30;;;;;;635067;226;26535;-69
2022/08/10 10:52:38;;;;;;;1.23;1.12;;;25.00;42.10;;;;;;635778;226;26556;-70
2022/08/10 10:55:29;;;;;;;1.37;1.37;;;25.00;40.60;;;;;;634112;227;26613;-68
2022/08/10 10:58:07;;;;;;;2.62;1.42;;;25.00;40.60;;;;;;630463;226;26606;-69
2022/08/10 11:00:36;;;;;;;1.60;1.42;;;25.10;42.10;;;;;;634120;227;26598;-69
2022/08/10 11:03:20;;;;;;;2.22;1.58;;;25.10;41.80;;;;;;634020;223;26592;-69
2022/08/10 11:05:55;;;;;;;2.78;1.30;;;25.20;41.80;;;;;;633181;227;26561;-69
2022/08/10 11:08:22;;;;;;;1.80;1.33;;;25.30;40.90;;;;;;633168;227;26578;-69
2022/08/10 11:10:51;;;;;;;1.17;1.17;;;25.40;41.20;;;;;;628515;227;26603;-64
2022/08/10 11:13:37;;;;;;;1.87;1.52;;;25.40;41.20;;;;;;630880;226;26609;-69
2022/08/10 11:16:14;;;;;;;1.98;1.50;;;25.60;41.30;;;;;;625562;226;26613;-68
2022/08/10 11:18:48;;;;;;;1.37;1.27;;;25.60;40.40;;;;;;625434;230;26825;-68
2022/08/10 11:21:19;;;;;;;63.83;12.50;;;25.70;39.00;;;;;;624758;226;26601;-67
2022/08/10 11:24:02;;;;;;;108.60;21.10;;;25.70;38.50;;;;;;600548;239;26626;-66
2022/08/10 11:26:31;;;;;;;163.70;31.35;;;25.70;38.40;;;;;;601692;239;26579;-67
2022/08/10 11:29:15;;;;;;;116.00;27.42;;;25.70;38.10;;;;;;613894;232;26762;-70
2022/08/10 11:31:42;;;;;;;114.20;26.60;;;25.90;38.20;;;;;;600088;238;26633;-67
2022/08/10 11:34:28;;;;;;;105.82;23.15;;;25.90;38.40;;;;;;613589;234;26787;-69
2022/08/10 11:36:56;;;;;;;36.83;8.43;;;25.90;40.70;;;;;;601759;239;26821;-69
2022/08/10 11:39:43;;;;;;;15.60;5.57;;;26.00;40.50;;;;;;612873;234;26551;-69
2022/08/10 11:42:15;;;;;;;22.30;5.57;;;26.10;38.20;;;;;;600673;239;26810;-69
2022/08/10 11:44:53;;;;;;;26.50;6.65;;;26.10;40.00;;;;;;601392;239;26618;-68
2022/08/10 11:47:29;;;;;;;23.65;6.25;;;26.10;39.60;;;;;;601343;239;26666;-69
2022/08/10 11:49:59;;;;;;;16.33;4.28;;;26.20;42.00;;;;;;601632;239;26606;-69
2022/08/10 11:52:48;;;;;;;9.25;2.78;;;26.20;42.30;;;;;;601499;239;26647;-68
2022/08/10 11:55:18;;;;;;;6.18;1.90;;;26.20;42.30;;;;;;600697;239;26644;-69
2022/08/10 11:57:45;;;;;;;1.90;1.70;;;26.30;40.80;;;;;;601673;239;26649;-68
2022/08/10 12:00:14;;;;;;;2.20;1.55;;;26.40;40.90;;;;;;601608;239;26622;-68
2022/08/10 12:02:41;;;;;;;2.33;1.70;;;26.30;39.60;;;;;;601667;239;26628;-69
2022/08/10 12:05:11;;;;;;;1.70;1.60;;;26.40;41.30;;;;;;601148;239;26862;-69
2022/08/10 12:07:38;;;;;;;1.65;1.40;;;26.40;40.60;;;;;;601019;239;26627;-69
2022/08/10 12:10:07;;;;;;;1.67;1.42;;;26.70;38.50;;;;;;601182;239;26586;-69
2022/08/10 12:12:34;;;;;;;1.62;1.30;;;26.60;38.40;;;;;;601669;239;26566;-68
2022/08/10 12:15:02;;;;;;;1.17;1.10;;;26.80;38.80;;;;;;601038;239;26854;-68
2022/08/10 12:17:39;;;;;;;1.98;1.30;;;26.70;35.80;;;;;;601064;239;26620;-68
2022/08/10 12:20:09;;;;;;;1.30;1.20;;;26.70;36.60;;;;;;601042;239;26907;-69
2022/08/10 12:22:41;;;;;;;1.02;1.00;;;26.80;38.20;;;;;;600838;239;26635;-69
2022/08/10 12:25:09;;;;;;;1.90;1.30;;;27.00;36.10;;;;;;600766;239;26569;-69
2022/08/10 12:27:39;;;;;;;1.58;1.40;;;27.50;35.90;;;;;;601093;239;26572;-68
2022/08/10 12:30:08;;;;;;;1.50;1.40;;;27.50;35.90;;;;;;600928;239;26822;-69
2022/08/10 12:33:08;;;;;;;2.25;1.20;;;27.70;35.40;;;;;;601325;239;26541;-68
2022/08/10 12:35:36;;;;;;;1.70;1.30;;;27.90;36.00;;;;;;598705;239;26821;-68
2022/08/10 12:38:07;;;;;;;1.45;1.35;;;28.30;35.50;;;;;;627481;229;26775;-69
2022/08/10 12:40:43;;;;;;;2.55;1.50;;;28.30;34.20;;;;;;625312;228;26579;-69
2022/08/10 12:43:11;;;;;;;1.02;1.02;;;28.30;35.40;;;;;;625843;230;26804;-68
2022/08/10 12:45:38;;;;;;;2.08;1.40;;;28.50;34.70;;;;;;602407;239;26627;-68
2022/08/10 12:48:07;;;;;;;1.75;1.30;;;28.80;34.50;;;;;;602908;239;26789;-69
2022/08/10 12:50:40;;;;;;;1.10;1.00;;;28.90;35.30;;;;;;613520;234;26770;-68
2022/08/10 12:53:22;;;;;;;1.75;1.17;;;29.20;33.10;;;;;;602082;239;26575;-69
2022/08/10 12:55:50;;;;;;;1.33;1.23;;;29.60;32.40;;;;;;601499;239;26540;-69
2022/08/10 12:58:18;;;;;;;1.35;1.25;;;29.50;32.30;;;;;;602086;239;26559;-69
2022/08/10 13:00:45;;;;;;;2.83;1.30;;;29.90;32.20;;;;;;601818;239;26596;-69
2022/08/10 13:03:13;;;;;;;2.72;1.25;;;30.80;33.40;;;;;;601952;239;26775;-69
2022/08/10 13:05:40;;;;;;;1.95;1.25;;;30.80;33.30;;;;;;601941;239;26613;-69
2022/08/10 13:10:41;;;;;;;2.17;1.15;;;31.90;33.00;;;;;;601728;239;26619;-64